createdAt,value
2023-02-05T00:00:08.551Z,15.02
2023-02-05T00:03:23.772Z,18.85
2023-02-05T00:06:33.051Z,17.67
2023-02-05T00:09:46.681Z,16.27
2023-02-05T00:12:50.646Z,18.60
2023-02-05T00:15:59.291Z,16.02
2023-02-05T00:19:08.989Z,18.85
2023-02-05T00:22:12.694Z,17.65
2023-02-05T00:25:26.718Z,16.85
2023-02-05T00:28:36.394Z,21.02
2023-02-05T00:31:50.091Z,22.90
2023-02-05T00:34:54.721Z,21.40
2023-02-05T00:37:58.452Z,22.10
2023-02-05T00:41:02.523Z,30.90
2023-02-05T00:44:08.118Z,27.67
2023-02-05T00:47:12.369Z,23.50
2023-02-05T00:50:22.255Z,23.50
2023-02-05T00:53:27.297Z,29.30
2023-02-05T00:56:31.382Z,26.95
2023-02-05T00:59:35.585Z,28.52
2023-02-05T01:02:39.360Z,32.20
2023-02-05T01:05:44.062Z,30.33
2023-02-05T01:08:52.688Z,35.10
2023-02-05T01:11:56.654Z,29.63
2023-02-05T01:15:07.900Z,31.02
2023-02-05T01:18:17.152Z,40.55
2023-02-05T01:21:30.688Z,42.95
2023-02-05T01:24:34.793Z,38.08
2023-02-05T01:27:40.694Z,42.35
2023-02-05T01:30:51.272Z,52.10
2023-02-05T01:33:56.048Z,44.17
2023-02-05T01:37:01.412Z,57.83
2023-02-05T01:40:05.986Z,58.87
2023-02-05T01:43:18.667Z,55.45
2023-02-05T01:46:29.835Z,58.30
2023-02-05T01:49:41.462Z,80.84
2023-02-05T01:52:50.723Z,116.47
2023-02-05T01:56:08.923Z,74.13
2023-02-05T01:59:19.366Z,77.07
2023-02-05T02:02:30.961Z,115.70
2023-02-05T02:05:36.389Z,138.63
2023-02-05T02:08:41.936Z,111.05
2023-02-05T02:11:46.235Z,90.83
2023-02-05T02:15:00.601Z,40.95
2023-02-05T02:18:26.891Z,45.95
2023-02-05T02:21:54.801Z,42.33
2023-02-05T02:25:19.198Z,52.83
2023-02-05T02:28:31.057Z,52.25
2023-02-05T02:31:45.970Z,45.93
2023-02-05T02:34:56.247Z,63.10
2023-02-05T02:38:30.682Z,92.43
2023-02-05T02:42:00.169Z,61.22
2023-02-05T02:45:09.630Z,67.43
2023-02-05T02:48:16.571Z,69.53
2023-02-05T02:51:23.964Z,67.23
2023-02-05T02:54:31.599Z,78.88
2023-02-05T02:57:41.040Z,74.60
2023-02-05T03:00:46.767Z,61.72
2023-02-05T03:04:00.696Z,64.00
2023-02-05T03:07:16.443Z,51.50
2023-02-05T03:14:22.429Z,55.60
2023-02-05T03:17:28.243Z,77.47
2023-02-05T03:24:31.053Z,78.85
2023-02-05T03:27:36.320Z,97.95
2023-02-05T03:30:55.730Z,65.17
2023-02-05T03:34:24.009Z,84.55
2023-02-05T03:37:51.553Z,179.32
2023-02-05T03:41:07.449Z,146.00
2023-02-05T03:48:31.520Z,90.22
2023-02-05T03:51:50.413Z,76.70
2023-02-05T03:55:16.429Z,55.83
2023-02-05T03:58:30.412Z,54.30
2023-02-05T04:01:41.066Z,51.15
2023-02-05T04:04:55.264Z,72.65
2023-02-05T04:08:00.869Z,48.20
2023-02-05T04:11:20.486Z,64.32
2023-02-05T04:14:25.869Z,102.75
2023-02-05T04:17:29.955Z,126.63
2023-02-05T04:20:45.116Z,77.68
2023-02-05T04:23:51.514Z,98.83
2023-02-05T04:27:01.596Z,44.38
2023-02-05T04:30:07.363Z,51.90
2023-02-05T04:33:15.402Z,55.38
2023-02-05T04:36:20.143Z,66.38
2023-02-05T04:39:26.571Z,60.13
2023-02-05T04:42:31.054Z,65.97
2023-02-05T04:45:40.450Z,78.13
2023-02-05T04:48:47.197Z,48.30
2023-02-05T04:51:54.656Z,75.75
2023-02-05T04:55:10.835Z,68.82
2023-02-05T04:58:15.655Z,115.32
2023-02-05T05:01:22.106Z,120.67
2023-02-05T05:04:26.418Z,58.17
2023-02-05T05:07:41.593Z,46.30
2023-02-05T05:10:45.898Z,40.05
2023-02-05T05:14:00.228Z,40.90
2023-02-05T05:17:09.046Z,44.28
2023-02-05T05:20:12.890Z,38.92
2023-02-05T05:23:16.734Z,34.20
2023-02-05T05:26:21.416Z,31.23
2023-02-05T05:29:25.629Z,33.08
2023-02-05T05:32:29.734Z,39.83
2023-02-05T05:35:33.895Z,76.75
2023-02-05T05:38:39.042Z,37.47
2023-02-05T05:42:12.084Z,43.00
2023-02-05T05:45:17.394Z,36.97
2023-02-05T05:48:26.862Z,51.95
2023-02-05T05:51:33.080Z,51.53
2023-02-05T05:54:37.942Z,77.55
2023-02-05T05:57:43.552Z,74.47
2023-02-05T06:00:58.258Z,76.05
2023-02-05T06:04:07.356Z,69.82
2023-02-05T06:07:11.596Z,54.65
2023-02-05T06:10:26.062Z,51.03
2023-02-05T06:13:30.230Z,45.53
2023-02-05T06:16:34.716Z,38.17
2023-02-05T06:19:49.275Z,37.72
2023-02-05T06:22:54.230Z,29.30
2023-02-05T06:25:59.173Z,33.55
2023-02-05T06:29:10.730Z,34.67
2023-02-05T06:32:20.210Z,38.53
2023-02-05T06:35:35.042Z,41.42
2023-02-05T06:38:39.993Z,42.22
2023-02-05T06:41:46.839Z,82.03
2023-02-05T06:44:55.843Z,88.07
2023-02-05T06:48:05.929Z,63.45
2023-02-05T06:51:10.181Z,48.22
2023-02-05T06:54:14.432Z,62.50
2023-02-05T06:57:28.617Z,59.72
2023-02-05T07:00:43.473Z,42.72
2023-02-05T07:03:48.954Z,44.60
2023-02-05T07:06:59.004Z,34.50
2023-02-05T07:10:02.897Z,27.38
2023-02-05T07:13:18.564Z,30.90
2023-02-05T07:16:22.785Z,40.47
2023-02-05T07:19:37.884Z,29.27
2023-02-05T07:22:42.876Z,39.13
2023-02-05T07:25:46.854Z,29.27
2023-02-05T07:28:50.835Z,33.10
2023-02-05T07:31:54.836Z,26.77
2023-02-05T07:34:58.841Z,28.70
2023-02-05T07:38:02.714Z,32.60
2023-02-05T07:41:10.143Z,36.50
2023-02-05T07:44:24.916Z,61.65
2023-02-05T07:47:39.109Z,70.65
2023-02-05T07:50:46.363Z,31.35
2023-02-05T07:54:01.087Z,25.90
2023-02-05T07:57:07.071Z,25.05
2023-02-05T08:00:16.677Z,21.98
2023-02-05T08:03:22.507Z,20.02
2023-02-05T08:06:37.439Z,20.63
2023-02-05T08:09:41.631Z,18.85
2023-02-05T08:12:45.678Z,21.73
2023-02-05T08:15:49.616Z,22.45
2023-02-05T08:18:54.123Z,24.58
2023-02-05T08:22:00.519Z,26.60
2023-02-05T08:25:07.560Z,20.50
2023-02-05T08:28:11.277Z,25.23
2023-02-05T08:31:19.086Z,22.52
2023-02-05T08:34:29.094Z,28.15
2023-02-05T08:37:33.451Z,23.85
2023-02-05T08:40:37.898Z,28.40
2023-02-05T08:43:44.610Z,29.58
2023-02-05T08:46:50.383Z,44.17
2023-02-05T08:50:06.709Z,94.35
2023-02-05T08:53:10.446Z,36.33
2023-02-05T08:56:16.018Z,40.83
2023-02-05T08:59:20.926Z,29.85
2023-02-05T09:02:28.485Z,51.13
2023-02-05T09:05:33.978Z,54.47
2023-02-05T09:08:47.319Z,43.08
2023-02-05T09:12:01.584Z,50.00
2023-02-05T09:15:07.030Z,32.25
2023-02-05T09:18:21.690Z,35.30
2023-02-05T09:21:31.245Z,26.83
2023-02-05T09:24:35.681Z,30.95
2023-02-05T09:27:41.453Z,30.63
2023-02-05T09:30:46.977Z,26.77
2023-02-05T09:33:56.416Z,25.83
2023-02-05T09:37:00.351Z,26.60
2023-02-05T09:40:20.647Z,26.73
2023-02-05T09:43:56.644Z,27.20
2023-02-05T09:47:28.569Z,33.95
2023-02-05T09:50:34.908Z,36.15
2023-02-05T09:53:47.873Z,41.72
2023-02-05T09:56:58.576Z,26.05
2023-02-05T10:00:04.374Z,24.48
2023-02-05T10:03:49.042Z,21.60
2023-02-05T10:07:17.021Z,22.50
2023-02-05T10:10:29.114Z,23.95
2023-02-05T10:13:45.565Z,23.20
2023-02-05T10:17:13.593Z,23.30
2023-02-05T10:20:40.899Z,23.08
2023-02-05T10:24:03.119Z,27.38
2023-02-05T10:27:23.167Z,25.27
2023-02-05T10:30:56.728Z,29.52
2023-02-05T10:34:19.235Z,27.35
2023-02-05T10:37:48.358Z,31.15
2023-02-05T10:40:59.983Z,31.47
2023-02-05T10:44:26.686Z,30.10
2023-02-05T10:47:51.241Z,32.50
2023-02-05T10:51:05.493Z,33.75
2023-02-05T10:54:34.697Z,37.00
2023-02-05T10:57:38.818Z,31.15
2023-02-05T11:00:47.269Z,34.47
2023-02-05T11:04:08.030Z,30.92
2023-02-05T11:07:29.154Z,29.50
2023-02-05T11:10:36.803Z,34.33
2023-02-05T11:16:47.676Z,29.13
2023-02-05T11:23:56.393Z,42.47
2023-02-05T11:27:27.841Z,36.75
2023-02-05T11:30:53.102Z,36.22
2023-02-05T11:34:20.927Z,47.42
2023-02-05T11:37:25.145Z,38.60
2023-02-05T11:40:32.584Z,39.42
2023-02-05T11:43:46.314Z,50.75
2023-02-05T11:46:57.266Z,68.38
2023-02-05T11:50:27.033Z,74.63
2023-02-05T11:53:33.442Z,73.50
2023-02-05T11:56:37.384Z,62.67
2023-02-05T11:59:41.692Z,85.28
2023-02-05T12:03:06.039Z,94.55
2023-02-05T12:06:19.899Z,61.80
2023-02-05T12:09:29.093Z,103.80
2023-02-05T12:12:58.779Z,44.65
2023-02-05T12:16:12.240Z,62.30
2023-02-05T12:19:33.576Z,42.17
2023-02-05T12:22:51.314Z,42.85
2023-02-05T12:26:12.904Z,56.60
2023-02-05T12:29:36.185Z,58.17
2023-02-05T12:33:14.625Z,43.75
2023-02-05T12:37:06.365Z,48.83
2023-02-05T12:40:23.132Z,43.17
2023-02-05T12:43:36.577Z,41.60
2023-02-05T12:47:20.621Z,38.47
2023-02-05T12:54:50.452Z,48.15
2023-02-05T12:58:06.353Z,119.20
2023-02-05T13:05:26.613Z,34.60
2023-02-05T13:08:39.990Z,56.38
2023-02-05T13:11:52.320Z,34.03
2023-02-05T13:15:22.417Z,33.58
2023-02-05T13:18:34.295Z,59.65
2023-02-05T13:22:05.123Z,65.37
2023-02-05T13:25:48.232Z,45.15
2023-02-05T13:29:10.836Z,69.70
2023-02-05T13:32:17.767Z,83.65
2023-02-05T13:35:24.027Z,78.55
2023-02-05T13:39:05.290Z,100.78
2023-02-05T13:42:41.257Z,176.73
2023-02-05T13:46:14.823Z,120.82
2023-02-05T13:50:01.114Z,145.57
2023-02-05T13:53:24.647Z,118.40
2023-02-05T13:56:49.163Z,56.52
2023-02-05T13:59:54.836Z,70.47
2023-02-05T14:03:06.916Z,63.75
2023-02-05T14:06:39.136Z,71.25
2023-02-05T14:10:00.067Z,63.35
2023-02-05T14:13:31.593Z,67.60
2023-02-05T14:16:37.007Z,65.60
2023-02-05T14:19:52.715Z,77.30
2023-02-05T14:23:36.100Z,96.32
2023-02-05T14:27:00.860Z,99.82
2023-02-05T14:30:40.291Z,73.72
2023-02-05T14:33:48.423Z,84.93
2023-02-05T14:36:53.481Z,76.03
2023-02-05T14:39:58.721Z,95.07
2023-02-05T14:43:18.503Z,89.47
2023-02-05T14:46:44.929Z,86.90
2023-02-05T14:49:59.588Z,102.32
2023-02-05T14:53:06.253Z,85.90
2023-02-05T14:56:33.285Z,77.03
2023-02-05T15:00:07.659Z,68.22
2023-02-05T15:03:27.659Z,83.90
2023-02-05T15:06:41.445Z,113.25
2023-02-05T15:10:07.700Z,65.03
2023-02-05T15:13:13.590Z,70.15
2023-02-05T15:16:27.398Z,70.32
2023-02-05T15:19:52.613Z,70.78
2023-02-05T15:23:41.878Z,69.32
2023-02-05T15:26:52.943Z,64.60
2023-02-05T15:30:09.359Z,64.15
2023-02-05T15:33:33.542Z,62.40
2023-02-05T15:36:53.096Z,93.38
2023-02-05T15:40:09.794Z,59.50
2023-02-05T15:43:26.884Z,112.05
2023-02-05T15:46:43.558Z,163.18
2023-02-05T15:49:52.342Z,191.75
2023-02-05T15:53:11.066Z,253.40
2023-02-05T15:56:27.930Z,219.18
2023-02-05T15:59:35.239Z,336.88
2023-02-05T16:02:40.467Z,274.80
2023-02-05T16:05:53.479Z,376.05
2023-02-05T16:08:59.239Z,178.82
2023-02-05T16:12:14.326Z,170.70
2023-02-05T16:15:19.600Z,228.18
2023-02-05T16:18:35.119Z,201.73
2023-02-05T16:21:47.778Z,193.73
2023-02-05T16:24:54.590Z,138.98
2023-02-05T16:28:02.057Z,121.90
2023-02-05T16:31:21.380Z,155.93
2023-02-05T16:34:33.399Z,147.52
2023-02-05T16:37:37.532Z,128.07
2023-02-05T16:40:47.045Z,102.75
2023-02-05T16:43:53.979Z,119.50
2023-02-05T16:47:19.428Z,74.20
2023-02-05T16:50:43.904Z,54.35
2023-02-05T16:53:50.599Z,46.70
2023-02-05T16:57:00.862Z,51.00
2023-02-05T17:00:25.715Z,44.83
2023-02-05T17:03:50.020Z,44.88
2023-02-05T17:06:59.887Z,42.35
2023-02-05T17:10:23.148Z,42.10
2023-02-05T17:13:45.286Z,48.78
2023-02-05T17:17:03.474Z,41.28
2023-02-05T17:20:16.345Z,37.28
2023-02-05T17:23:25.396Z,47.42
2023-02-05T17:26:43.551Z,56.55
2023-02-05T17:29:47.738Z,49.95
2023-02-05T17:32:55.927Z,56.03
2023-02-05T17:35:59.755Z,48.85
2023-02-05T17:42:24.722Z,44.08
2023-02-05T17:45:40.069Z,50.13
2023-02-05T17:48:45.019Z,54.30
2023-02-05T17:51:49.568Z,41.50
2023-02-05T17:54:54.409Z,47.33
2023-02-05T17:57:58.681Z,77.35
2023-02-05T18:01:06.524Z,89.40
2023-02-05T18:04:21.063Z,68.35
2023-02-05T18:07:58.915Z,42.40
2023-02-05T18:11:07.523Z,57.03
2023-02-05T18:14:11.608Z,50.03
2023-02-05T18:17:16.162Z,35.22
2023-02-05T18:20:21.724Z,45.42
2023-02-05T18:23:29.798Z,52.30
2023-02-05T18:26:38.724Z,41.28
2023-02-05T18:29:43.886Z,88.03
2023-02-05T18:32:47.971Z,56.95
2023-02-05T18:35:52.007Z,42.20
2023-02-05T18:38:58.138Z,54.78
2023-02-05T18:42:13.294Z,42.70
2023-02-05T18:45:17.489Z,44.80
2023-02-05T18:48:21.600Z,50.65
2023-02-05T18:51:25.281Z,54.28
2023-02-05T18:54:29.561Z,51.67
2023-02-05T18:57:33.790Z,40.45
2023-02-05T19:00:38.338Z,42.97
2023-02-05T19:03:48.193Z,36.42
2023-02-05T19:06:55.397Z,38.45
2023-02-05T19:10:08.661Z,39.35
2023-02-05T19:13:12.692Z,45.00
2023-02-05T19:16:17.497Z,45.40
2023-02-05T19:19:31.605Z,45.83
2023-02-05T19:22:45.803Z,36.50
2023-02-05T19:25:49.418Z,43.88
2023-02-05T19:29:05.069Z,37.45
2023-02-05T19:32:09.260Z,37.08
2023-02-05T19:35:14.197Z,39.40
2023-02-05T19:38:18.147Z,35.63
2023-02-05T19:41:26.784Z,42.55
2023-02-05T19:47:47.545Z,43.97
2023-02-05T19:50:57.145Z,43.75
2023-02-05T19:54:11.048Z,53.33
2023-02-05T19:57:15.246Z,49.60
2023-02-05T20:00:19.305Z,60.00
2023-02-05T20:03:22.996Z,46.60
2023-02-05T20:06:31.831Z,53.42
2023-02-05T20:09:35.929Z,49.00
2023-02-05T20:12:40.101Z,47.47
2023-02-05T20:15:54.171Z,55.38
2023-02-05T20:19:11.104Z,46.40
2023-02-05T20:22:15.167Z,49.17
2023-02-05T20:25:19.515Z,49.70
2023-02-05T20:28:25.234Z,70.45
2023-02-05T20:31:43.213Z,38.90
2023-02-05T20:34:50.538Z,42.65
2023-02-05T20:37:54.586Z,45.65
2023-02-05T20:41:17.809Z,43.65
2023-02-05T20:44:21.656Z,44.72
2023-02-05T20:47:25.739Z,42.22
2023-02-05T20:50:30.166Z,44.58
2023-02-05T20:53:35.188Z,43.30
2023-02-05T20:56:51.890Z,42.80
2023-02-05T20:59:56.117Z,54.55
2023-02-05T21:03:00.292Z,43.92
2023-02-05T21:06:10.661Z,52.15
2023-02-05T21:09:15.519Z,53.83
2023-02-05T21:12:19.376Z,44.83
2023-02-05T21:15:24.024Z,38.70
2023-02-05T21:18:29.613Z,32.95
2023-02-05T21:21:36.927Z,32.50
2023-02-05T21:24:44.654Z,37.47
2023-02-05T21:27:58.602Z,33.58
2023-02-05T21:31:08.190Z,29.48
2023-02-05T21:34:22.215Z,37.75
2023-02-05T21:37:26.384Z,31.13
2023-02-05T21:40:31.155Z,32.42
2023-02-05T21:43:35.456Z,31.98
2023-02-05T21:46:39.900Z,35.47
2023-02-05T21:49:43.997Z,28.42
2023-02-05T21:52:48.501Z,32.85
2023-02-05T21:56:04.271Z,32.15
2023-02-05T21:59:11.859Z,36.45
2023-02-05T22:02:16.216Z,34.28
2023-02-05T22:05:20.443Z,37.05
2023-02-05T22:08:39.553Z,40.80
2023-02-05T22:11:51.098Z,26.79
2023-02-05T22:14:55.943Z,35.67
2023-02-05T22:17:59.570Z,29.67
2023-02-05T22:21:15.520Z,35.75
2023-02-05T22:24:21.284Z,33.28
2023-02-05T22:27:35.317Z,38.65
2023-02-05T22:30:39.261Z,37.85
2023-02-05T22:33:45.542Z,32.58
2023-02-05T22:36:54.259Z,42.55
2023-02-05T22:40:09.348Z,42.70
2023-02-05T22:43:13.626Z,44.80
2023-02-05T22:46:29.882Z,58.00
2023-02-05T22:49:34.351Z,37.25
2023-02-05T22:52:38.523Z,40.70
2023-02-05T22:55:43.174Z,40.88
2023-02-05T22:58:48.534Z,36.47
2023-02-05T23:02:01.413Z,44.90
2023-02-05T23:05:08.560Z,45.22
2023-02-05T23:08:17.674Z,57.65
2023-02-05T23:11:28.862Z,49.85
2023-02-05T23:14:37.961Z,42.97
2023-02-05T23:17:43.261Z,68.85
2023-02-05T23:20:53.756Z,97.07
2023-02-05T23:24:00.174Z,67.05
2023-02-05T23:27:05.010Z,43.50
2023-02-05T23:30:09.826Z,171.80
2023-02-05T23:33:25.990Z,119.57
2023-02-05T23:36:29.692Z,52.03
2023-02-05T23:39:33.763Z,52.55
2023-02-05T23:42:48.140Z,88.30
2023-02-05T23:45:57.512Z,144.70
2023-02-05T23:49:02.021Z,119.07
2023-02-05T23:52:06.109Z,110.30
2023-02-05T23:55:16.136Z,94.07
2023-02-05T23:58:24.352Z,86.82
